createdAt,value
2022-11-14T00:00:50.232Z,135.35
2022-11-14T00:03:36.083Z,139.25
2022-11-14T00:06:22.657Z,126.53
2022-11-14T00:09:09.012Z,105.03
2022-11-14T00:11:56.103Z,174.27
2022-11-14T00:14:43.854Z,131.13
2022-11-14T00:17:33.741Z,108.90
2022-11-14T00:20:21.415Z,106.72
2022-11-14T00:23:07.770Z,139.63
2022-11-14T00:25:53.401Z,165.15
2022-11-14T00:28:40.276Z,120.22
2022-11-14T00:31:26.095Z,113.32
2022-11-14T00:34:11.741Z,94.35
2022-11-14T00:36:57.852Z,99.78
2022-11-14T00:39:45.142Z,106.70
2022-11-14T00:42:30.605Z,92.00
2022-11-14T00:45:15.853Z,114.32
2022-11-14T00:48:02.349Z,131.07
2022-11-14T00:50:48.630Z,122.40
2022-11-14T00:53:36.130Z,66.63
2022-11-14T00:56:23.950Z,102.93
2022-11-14T00:59:17.428Z,139.77
2022-11-14T01:02:04.576Z,152.63
2022-11-14T01:04:50.312Z,125.50
2022-11-14T01:07:35.945Z,123.75
2022-11-14T01:10:23.646Z,193.77
2022-11-14T01:13:13.079Z,138.38
2022-11-14T01:16:02.292Z,133.32
2022-11-14T01:18:49.087Z,160.57
2022-11-14T01:21:35.338Z,118.43
2022-11-14T01:24:22.614Z,180.45
2022-11-14T01:27:08.468Z,166.48
2022-11-14T01:29:54.558Z,135.27
2022-11-14T01:32:43.855Z,140.75
2022-11-14T01:35:33.027Z,151.98
2022-11-14T01:38:19.275Z,128.90
2022-11-14T01:41:06.108Z,116.68
2022-11-14T01:43:51.608Z,126.75
2022-11-14T01:46:40.582Z,111.65
2022-11-14T01:49:34.840Z,200.65
2022-11-14T01:52:41.126Z,173.98
2022-11-14T01:55:27.871Z,99.03
2022-11-14T01:58:14.965Z,96.28
2022-11-14T02:01:01.082Z,84.47
2022-11-14T02:03:50.283Z,84.28
2022-11-14T02:06:36.658Z,48.85
2022-11-14T02:09:23.216Z,89.70
2022-11-14T02:12:12.191Z,79.88
2022-11-14T02:15:00.072Z,51.33
2022-11-14T02:17:47.512Z,45.70
2022-11-14T02:20:43.093Z,59.80
2022-11-14T02:23:32.989Z,49.20
2022-11-14T02:26:24.696Z,61.65
2022-11-14T02:29:12.370Z,70.93
2022-11-14T02:31:59.024Z,94.82
2022-11-14T02:34:47.798Z,67.82
2022-11-14T02:37:33.395Z,53.70
2022-11-14T02:40:20.220Z,72.32
2022-11-14T02:43:06.146Z,75.60
2022-11-14T02:45:51.814Z,60.83
2022-11-14T02:48:38.664Z,81.63
2022-11-14T02:51:25.454Z,50.67
2022-11-14T02:54:12.166Z,54.83
2022-11-14T02:56:59.048Z,62.20
2022-11-14T02:59:45.028Z,61.35
2022-11-14T03:02:31.224Z,105.47
2022-11-14T03:05:18.762Z,100.18
2022-11-14T03:08:08.738Z,103.38
2022-11-14T03:10:55.151Z,106.15
2022-11-14T03:13:42.283Z,84.32
2022-11-14T03:16:30.870Z,56.03
2022-11-14T03:19:16.633Z,67.10
2022-11-14T03:22:02.887Z,73.95
2022-11-14T03:24:48.705Z,69.85
2022-11-14T03:27:36.132Z,57.55
2022-11-14T03:30:21.842Z,62.70
2022-11-14T03:33:07.249Z,51.70
2022-11-14T03:35:54.627Z,48.10
2022-11-14T03:38:40.803Z,55.60
2022-11-14T03:41:26.445Z,49.03
2022-11-14T03:44:11.970Z,49.33
2022-11-14T03:46:57.256Z,46.75
2022-11-14T03:49:45.161Z,55.72
2022-11-14T03:52:30.428Z,39.35
2022-11-14T03:55:16.566Z,54.15
2022-11-14T03:58:02.223Z,65.82
2022-11-14T04:00:47.686Z,50.33
2022-11-14T04:03:32.993Z,31.15
2022-11-14T04:06:18.314Z,51.05
2022-11-14T04:09:04.584Z,60.15
2022-11-14T04:11:50.563Z,71.57
2022-11-14T04:14:36.422Z,91.50
2022-11-14T04:17:22.558Z,70.68
2022-11-14T04:20:10.677Z,66.30
2022-11-14T04:22:57.344Z,62.17
2022-11-14T04:25:44.667Z,53.38
2022-11-14T04:28:30.509Z,57.13
2022-11-14T04:31:15.999Z,37.13
2022-11-14T04:34:01.744Z,38.92
2022-11-14T04:36:47.786Z,37.35
2022-11-14T04:39:33.520Z,42.85
2022-11-14T04:42:19.077Z,49.65
2022-11-14T04:45:05.847Z,49.00
2022-11-14T04:47:51.394Z,43.33
2022-11-14T04:50:36.949Z,44.17
2022-11-14T04:53:22.334Z,59.72
2022-11-14T04:56:07.785Z,61.33
2022-11-14T04:58:53.593Z,66.90
2022-11-14T05:01:39.450Z,62.58
2022-11-14T05:04:25.183Z,46.13
2022-11-14T05:07:11.938Z,58.03
2022-11-14T05:09:57.813Z,48.92
2022-11-14T05:12:44.289Z,35.72
2022-11-14T05:15:33.200Z,37.17
2022-11-14T05:18:19.671Z,29.83
2022-11-14T05:21:05.685Z,41.55
2022-11-14T05:23:51.375Z,98.90
2022-11-14T05:26:37.708Z,46.70
2022-11-14T05:29:23.554Z,61.75
2022-11-14T05:32:12.395Z,54.92
2022-11-14T05:35:01.787Z,79.07
2022-11-14T05:37:48.176Z,59.60
2022-11-14T05:40:34.855Z,73.95
2022-11-14T05:43:20.667Z,83.05
2022-11-14T05:46:12.631Z,70.65
2022-11-14T05:48:58.663Z,66.97
2022-11-14T05:51:44.857Z,61.85
2022-11-14T05:54:30.903Z,61.95
2022-11-14T05:57:17.111Z,74.63
2022-11-14T06:00:05.753Z,87.60
2022-11-14T06:02:55.455Z,72.35
2022-11-14T06:05:41.546Z,70.32
2022-11-14T06:08:29.938Z,55.53
2022-11-14T06:11:20.946Z,46.85
2022-11-14T06:14:11.399Z,55.75
2022-11-14T06:16:59.956Z,89.10
2022-11-14T06:19:46.096Z,82.80
2022-11-14T06:22:34.667Z,78.20
2022-11-14T06:25:20.617Z,76.53
2022-11-14T06:28:06.427Z,83.07
2022-11-14T06:30:52.617Z,99.05
2022-11-14T06:33:40.392Z,113.40
2022-11-14T06:36:26.563Z,136.60
2022-11-14T06:39:13.150Z,108.10
2022-11-14T06:42:00.070Z,140.63
2022-11-14T06:44:46.358Z,144.57
2022-11-14T06:47:32.404Z,137.43
2022-11-14T06:50:18.092Z,118.00
2022-11-14T06:53:06.093Z,103.28
2022-11-14T06:56:07.181Z,92.50
2022-11-14T06:58:53.108Z,104.93
2022-11-14T07:01:40.156Z,102.75
2022-11-14T07:04:26.622Z,112.43
2022-11-14T07:07:12.502Z,97.88
2022-11-14T07:09:58.908Z,118.95
2022-11-14T07:12:44.794Z,93.35
2022-11-14T07:15:30.590Z,105.47
2022-11-14T07:18:17.191Z,90.10
2022-11-14T07:21:06.167Z,120.38
2022-11-14T07:23:52.157Z,294.33
2022-11-14T07:26:37.770Z,95.20
2022-11-14T07:29:23.551Z,108.03
2022-11-14T07:33:00.829Z,54.65
2022-11-14T07:35:47.923Z,66.93
2022-11-14T07:38:36.000Z,104.22
2022-11-14T07:41:23.044Z,91.72
2022-11-14T07:44:09.755Z,94.30
2022-11-14T07:46:56.487Z,79.95
2022-11-14T07:49:42.668Z,79.45
2022-11-14T07:52:28.738Z,92.75
2022-11-14T07:55:40.131Z,114.97
2022-11-14T07:58:27.249Z,116.80
2022-11-14T08:01:14.835Z,97.13
2022-11-14T08:04:01.214Z,90.63
2022-11-14T08:06:47.527Z,89.32
2022-11-14T08:09:32.886Z,135.48
2022-11-14T08:12:18.825Z,111.35
2022-11-14T08:15:06.571Z,220.20
2022-11-14T08:17:51.993Z,128.60
2022-11-14T08:20:37.988Z,111.28
2022-11-14T08:23:24.325Z,170.05
2022-11-14T08:26:10.365Z,124.80
2022-11-14T08:28:56.511Z,139.20
2022-11-14T08:31:42.462Z,104.32
2022-11-14T08:34:29.731Z,122.10
2022-11-14T08:37:15.302Z,77.22
2022-11-14T08:40:03.673Z,71.13
2022-11-14T08:42:50.119Z,98.70
2022-11-14T08:45:35.830Z,78.75
2022-11-14T08:48:21.486Z,78.18
2022-11-14T08:51:07.658Z,78.05
2022-11-14T08:53:55.067Z,88.63
2022-11-14T08:56:41.934Z,71.95
2022-11-14T08:59:28.031Z,82.00
2022-11-14T09:02:15.055Z,68.75
2022-11-14T09:05:01.483Z,52.97
2022-11-14T09:07:47.567Z,35.00
2022-11-14T09:10:36.605Z,44.00
2022-11-14T09:13:23.012Z,33.38
2022-11-14T09:16:09.030Z,26.45
2022-11-14T09:18:55.203Z,27.55
2022-11-14T09:21:41.224Z,35.78
2022-11-14T09:24:29.638Z,24.77
2022-11-14T09:27:15.663Z,26.67
2022-11-14T09:30:01.834Z,21.90
2022-11-14T09:32:47.914Z,24.73
2022-11-14T09:35:43.558Z,25.52
2022-11-14T09:38:33.995Z,46.13
2022-11-14T09:41:27.400Z,18.60
2022-11-14T09:44:28.495Z,30.80
2022-11-14T09:47:23.268Z,22.77
2022-11-14T09:50:14.796Z,26.80
2022-11-14T09:53:22.300Z,19.42
2022-11-14T09:56:15.359Z,23.80
2022-11-14T09:59:01.302Z,22.02
2022-11-14T10:02:27.716Z,25.05
2022-11-14T10:05:16.193Z,24.98
2022-11-14T10:08:11.407Z,30.67
2022-11-14T10:11:10.910Z,27.85
2022-11-14T10:14:46.945Z,29.58
2022-11-14T10:17:35.058Z,28.75
2022-11-14T10:20:27.135Z,26.42
2022-11-14T10:23:45.638Z,23.73
2022-11-14T10:26:36.603Z,29.02
2022-11-14T10:29:25.542Z,29.20
2022-11-14T10:32:35.191Z,30.83
2022-11-14T10:35:25.234Z,26.58
2022-11-14T10:38:26.189Z,28.50
2022-11-14T10:41:28.505Z,30.63
2022-11-14T10:44:23.308Z,29.20
2022-11-14T10:47:15.354Z,30.85
2022-11-14T10:50:15.500Z,32.17
2022-11-14T10:53:05.228Z,23.55
2022-11-14T10:56:08.712Z,25.38
2022-11-14T10:58:54.157Z,24.58
2022-11-14T11:01:43.551Z,25.30
2022-11-14T11:04:35.323Z,40.83
2022-11-14T11:07:42.518Z,27.08
2022-11-14T11:10:47.796Z,28.08
2022-11-14T11:13:41.579Z,31.13
2022-11-14T11:16:32.829Z,65.30
2022-11-14T11:19:27.179Z,34.08
2022-11-14T11:22:25.422Z,28.27
2022-11-14T11:25:27.680Z,33.35
2022-11-14T11:28:22.571Z,31.77
2022-11-14T11:31:10.872Z,31.10
2022-11-14T11:34:03.838Z,27.67
2022-11-14T11:37:01.735Z,28.80
2022-11-14T11:39:56.394Z,30.15
2022-11-14T11:43:38.482Z,25.52
2022-11-14T11:46:24.851Z,27.20
2022-11-14T11:49:24.228Z,35.70
2022-11-14T11:52:26.857Z,31.90
2022-11-14T11:55:32.150Z,18.25
2022-11-14T11:58:27.256Z,21.90
2022-11-14T12:01:14.316Z,23.48
2022-11-14T12:04:01.904Z,26.95
2022-11-14T12:07:03.702Z,24.83
2022-11-14T12:13:19.867Z,33.17
2022-11-14T12:16:33.559Z,23.88
2022-11-14T12:19:40.413Z,24.85
2022-11-14T12:22:46.378Z,27.77
2022-11-14T12:25:56.485Z,22.85
2022-11-14T12:29:00.465Z,27.00
2022-11-14T12:31:48.464Z,28.58
2022-11-14T12:34:42.638Z,23.25
2022-11-14T12:37:43.154Z,27.88
2022-11-14T12:40:40.366Z,26.00
2022-11-14T12:43:36.405Z,28.75
2022-11-14T12:46:23.548Z,21.38
2022-11-14T12:49:48.521Z,23.90
2022-11-14T12:52:46.466Z,25.17
2022-11-14T12:55:31.917Z,29.90
2022-11-14T12:58:30.087Z,25.45
2022-11-14T13:01:18.563Z,29.00
2022-11-14T13:04:22.261Z,26.92
2022-11-14T13:07:34.724Z,23.48
2022-11-14T13:10:42.322Z,21.73
2022-11-14T13:13:47.736Z,21.00
2022-11-14T13:16:52.130Z,27.10
2022-11-14T13:20:06.216Z,28.92
2022-11-14T13:22:53.099Z,23.48
2022-11-14T13:25:39.108Z,19.05
2022-11-14T13:28:43.575Z,26.60
2022-11-14T13:31:51.627Z,29.38
2022-11-14T13:34:51.762Z,29.25
2022-11-14T13:37:56.059Z,60.75
2022-11-14T13:41:05.524Z,41.67
2022-11-14T13:44:01.329Z,43.10
2022-11-14T13:46:52.895Z,45.13
2022-11-14T13:49:56.711Z,38.35
2022-11-14T13:52:46.583Z,48.65
2022-11-14T13:55:54.217Z,46.97
2022-11-14T13:59:05.315Z,43.60
2022-11-14T14:02:11.302Z,43.90
2022-11-14T14:05:36.453Z,47.53
2022-11-14T14:08:53.660Z,45.22
2022-11-14T14:12:00.753Z,46.40
2022-11-14T14:15:15.181Z,59.50
2022-11-14T14:18:35.645Z,50.67
2022-11-14T14:21:29.955Z,48.78
2022-11-14T14:24:29.475Z,47.58
2022-11-14T14:27:36.367Z,45.20
2022-11-14T14:30:25.989Z,57.88
2022-11-14T14:33:15.540Z,50.33
2022-11-14T14:36:01.312Z,42.88
2022-11-14T14:38:48.939Z,59.10
2022-11-14T14:41:35.241Z,58.85
2022-11-14T14:44:35.077Z,58.20
2022-11-14T14:47:41.496Z,77.03
2022-11-14T14:50:33.428Z,76.28
2022-11-14T14:53:25.365Z,55.05
2022-11-14T14:56:20.826Z,52.25
2022-11-14T14:59:18.757Z,60.65
2022-11-14T15:02:15.435Z,73.80
2022-11-14T15:05:03.596Z,54.00
2022-11-14T15:07:51.478Z,49.78
2022-11-14T15:10:37.833Z,49.67
2022-11-14T15:13:25.500Z,47.15
2022-11-14T15:16:11.589Z,46.78
2022-11-14T15:19:00.614Z,36.47
2022-11-14T15:22:04.141Z,35.42
2022-11-14T15:25:12.192Z,40.88
2022-11-14T15:28:02.629Z,35.53
2022-11-14T15:31:02.410Z,45.72
2022-11-14T15:34:34.385Z,42.63
2022-11-14T15:37:22.596Z,44.28
2022-11-14T15:40:22.761Z,48.78
2022-11-14T15:43:37.212Z,48.33
2022-11-14T15:46:37.812Z,46.10
2022-11-14T15:49:26.885Z,45.23
2022-11-14T15:52:26.622Z,50.47
2022-11-14T15:55:16.209Z,55.90
2022-11-14T15:58:26.637Z,43.97
2022-11-14T16:01:16.051Z,48.08
2022-11-14T16:04:02.952Z,49.15
2022-11-14T16:06:48.901Z,47.28
2022-11-14T16:09:34.988Z,39.33
2022-11-14T16:12:21.499Z,52.42
2022-11-14T16:15:08.085Z,41.97
2022-11-14T16:17:53.895Z,40.25
2022-11-14T16:20:42.111Z,43.63
2022-11-14T16:23:27.744Z,57.58
2022-11-14T16:26:13.571Z,43.90
2022-11-14T16:28:59.296Z,45.22
2022-11-14T16:31:45.062Z,48.30
2022-11-14T16:34:59.727Z,46.42
2022-11-14T16:37:49.594Z,42.78
2022-11-14T16:40:36.548Z,59.78
2022-11-14T16:43:23.234Z,38.00
2022-11-14T16:46:11.595Z,39.40
2022-11-14T16:48:57.309Z,33.72
2022-11-14T16:51:49.317Z,37.33
2022-11-14T16:54:35.665Z,34.92
2022-11-14T16:57:21.659Z,41.08
2022-11-14T17:00:10.984Z,50.47
2022-11-14T17:02:57.004Z,39.75
2022-11-14T17:05:51.395Z,39.75
2022-11-14T17:08:37.602Z,35.45
2022-11-14T17:11:25.084Z,39.58
2022-11-14T17:14:11.176Z,76.18
2022-11-14T17:17:05.110Z,64.00
2022-11-14T17:20:02.751Z,74.18
2022-11-14T17:22:52.034Z,74.30
2022-11-14T17:25:44.862Z,70.28
2022-11-14T17:28:31.421Z,74.15
2022-11-14T17:31:17.575Z,69.22
2022-11-14T17:34:03.743Z,61.25
2022-11-14T17:36:49.287Z,56.38
2022-11-14T17:39:36.407Z,57.53
2022-11-14T17:42:22.322Z,45.33
2022-11-14T17:45:21.911Z,52.10
2022-11-14T17:48:08.291Z,53.58
2022-11-14T17:50:55.604Z,52.15
2022-11-14T17:53:42.821Z,54.33
2022-11-14T17:56:29.300Z,52.08
2022-11-14T17:59:15.850Z,55.25
2022-11-14T18:02:04.977Z,50.53
2022-11-14T18:04:50.937Z,56.38
2022-11-14T18:07:36.802Z,50.45
2022-11-14T18:10:22.546Z,54.10
2022-11-14T18:13:08.523Z,54.20
2022-11-14T18:15:54.209Z,59.38
2022-11-14T18:18:39.900Z,60.70
2022-11-14T18:21:26.875Z,53.30
2022-11-14T18:24:14.232Z,53.15
2022-11-14T18:26:59.753Z,59.50
2022-11-14T18:29:45.295Z,53.85
2022-11-14T18:32:31.585Z,52.58
2022-11-14T18:35:17.389Z,66.40
2022-11-14T18:38:02.914Z,63.83
2022-11-14T18:40:52.956Z,66.43
2022-11-14T18:44:14.678Z,66.68
2022-11-14T18:47:00.458Z,70.35
2022-11-14T18:50:13.433Z,57.28
2022-11-14T18:52:59.196Z,51.35
2022-11-14T18:56:23.233Z,62.10
2022-11-14T18:59:09.764Z,56.20
2022-11-14T19:01:55.763Z,59.92
2022-11-14T19:04:41.690Z,59.85
2022-11-14T19:07:29.811Z,54.15
2022-11-14T19:10:15.953Z,59.38
2022-11-14T19:13:01.389Z,53.70
2022-11-14T19:15:46.997Z,47.15
2022-11-14T19:18:33.127Z,49.20
2022-11-14T19:21:18.784Z,52.47
2022-11-14T19:24:04.969Z,49.88
2022-11-14T19:26:50.959Z,61.65
2022-11-14T19:29:40.207Z,83.13
2022-11-14T19:32:55.562Z,72.90
2022-11-14T19:35:41.910Z,49.10
2022-11-14T19:38:27.742Z,51.92
2022-11-14T19:41:32.816Z,47.30
2022-11-14T19:44:20.698Z,46.90
2022-11-14T19:47:50.424Z,48.30
2022-11-14T19:50:36.928Z,57.95
2022-11-14T19:53:22.572Z,47.70
2022-11-14T19:56:14.519Z,48.83
2022-11-14T19:59:00.660Z,47.63
2022-11-14T20:01:46.055Z,50.47
2022-11-14T20:04:36.834Z,48.47
2022-11-14T20:07:24.097Z,48.05
2022-11-14T20:10:11.384Z,55.63
2022-11-14T20:12:58.114Z,46.92
2022-11-14T20:15:43.674Z,55.53
2022-11-14T20:18:30.359Z,49.30
2022-11-14T20:21:44.771Z,45.20
2022-11-14T20:24:38.371Z,44.58
2022-11-14T20:27:24.258Z,50.63
2022-11-14T20:30:10.885Z,51.63
2022-11-14T20:32:56.466Z,54.75
2022-11-14T20:35:43.209Z,55.97
2022-11-14T20:38:33.352Z,61.00
2022-11-14T20:41:20.401Z,57.05
2022-11-14T20:44:05.851Z,58.45
2022-11-14T20:46:51.805Z,55.15
2022-11-14T20:49:37.603Z,56.20
2022-11-14T20:52:23.662Z,56.13
2022-11-14T20:55:11.937Z,58.00
2022-11-14T20:57:58.271Z,49.65
2022-11-14T21:00:43.853Z,58.67
2022-11-14T21:03:30.520Z,47.70
2022-11-14T21:06:17.079Z,52.78
2022-11-14T21:09:03.227Z,50.42
2022-11-14T21:11:50.184Z,50.85
2022-11-14T21:14:35.336Z,47.50
2022-11-14T21:17:21.098Z,56.42
2022-11-14T21:20:09.006Z,49.83
2022-11-14T21:22:56.490Z,48.58
2022-11-14T21:25:41.977Z,49.33
2022-11-14T21:28:36.792Z,51.17
2022-11-14T21:31:27.341Z,51.53
2022-11-14T21:34:15.722Z,55.23
2022-11-14T21:37:02.173Z,60.80
2022-11-14T21:39:49.292Z,54.30
2022-11-14T21:42:34.724Z,61.28
2022-11-14T21:45:20.589Z,57.20
2022-11-14T21:48:06.613Z,62.30
2022-11-14T21:50:52.765Z,54.13
2022-11-14T21:53:39.264Z,59.13
2022-11-14T21:56:30.210Z,50.25
2022-11-14T21:59:19.043Z,57.92
2022-11-14T22:02:23.589Z,56.65
2022-11-14T22:05:09.649Z,53.03
2022-11-14T22:07:55.114Z,53.53
2022-11-14T22:10:41.805Z,46.30
2022-11-14T22:13:30.691Z,47.58
2022-11-14T22:16:22.500Z,47.47
2022-11-14T22:19:08.413Z,44.13
2022-11-14T22:21:54.855Z,43.63
2022-11-14T22:24:40.954Z,47.72
2022-11-14T22:27:26.814Z,45.42
2022-11-14T22:30:14.326Z,43.42
2022-11-14T22:33:00.763Z,43.63
2022-11-14T22:35:46.392Z,43.80
2022-11-14T22:38:34.268Z,38.65
2022-11-14T22:41:25.239Z,43.03
2022-11-14T22:44:16.309Z,39.45
2022-11-14T22:47:01.830Z,42.05
2022-11-14T22:49:47.190Z,42.58
2022-11-14T22:52:33.422Z,40.95
2022-11-14T22:55:19.075Z,38.92
2022-11-14T22:58:05.188Z,40.40
2022-11-14T23:00:52.368Z,38.40
2022-11-14T23:03:39.316Z,41.42
2022-11-14T23:06:26.205Z,39.65
2022-11-14T23:09:12.093Z,39.08
2022-11-14T23:11:57.972Z,40.90
2022-11-14T23:14:43.568Z,36.70
2022-11-14T23:17:29.293Z,40.42
2022-11-14T23:20:16.789Z,35.08
2022-11-14T23:23:03.723Z,38.28
2022-11-14T23:25:49.524Z,38.47
2022-11-14T23:28:35.888Z,41.72
2022-11-14T23:31:25.758Z,37.42
2022-11-14T23:34:12.875Z,38.00
2022-11-14T23:37:00.649Z,37.15
2022-11-14T23:39:46.203Z,35.38
2022-11-14T23:42:31.996Z,40.20
2022-11-14T23:45:17.927Z,35.80
2022-11-14T23:48:04.164Z,34.65
2022-11-14T23:50:51.707Z,35.03
2022-11-14T23:53:38.148Z,34.33
2022-11-14T23:56:24.270Z,35.95
2022-11-14T23:59:10.004Z,34.10
